sensor_id;sensor_type;location;lat;lon;timestamp;P1;durP1;ratioP1;P2;durP2;ratioP2
67185;SDS011;54116;53.518;49.398;2022-11-20T00:00:46;11.38;;;5.55;;
67185;SDS011;54116;53.518;49.398;2022-11-20T00:03:13;11.60;;;5.25;;
67185;SDS011;54116;53.518;49.398;2022-11-20T00:05:39;11.90;;;5.82;;
67185;SDS011;54116;53.518;49.398;2022-11-20T00:08:05;11.02;;;5.05;;
67185;SDS011;54116;53.518;49.398;2022-11-20T00:10:31;13.48;;;6.65;;
67185;SDS011;54116;53.518;49.398;2022-11-20T00:12:57;12.75;;;5.80;;
67185;SDS011;54116;53.518;49.398;2022-11-20T00:15:24;11.02;;;5.45;;
67185;SDS011;54116;53.518;49.398;2022-11-20T00:17:50;10.77;;;5.03;;
67185;SDS011;54116;53.518;49.398;2022-11-20T00:20:16;12.23;;;5.82;;
67185;SDS011;54116;53.518;49.398;2022-11-20T00:22:42;12.38;;;5.53;;
67185;SDS011;54116;53.518;49.398;2022-11-20T00:25:08;11.65;;;5.13;;
67185;SDS011;54116;53.518;49.398;2022-11-20T00:27:34;13.00;;;5.30;;
67185;SDS011;54116;53.518;49.398;2022-11-20T00:30:00;12.63;;;5.60;;
67185;SDS011;54116;53.518;49.398;2022-11-20T00:32:26;10.60;;;4.63;;
67185;SDS011;54116;53.518;49.398;2022-11-20T00:34:52;12.48;;;5.45;;
67185;SDS011;54116;53.518;49.398;2022-11-20T00:37:18;12.15;;;5.18;;
67185;SDS011;54116;53.518;49.398;2022-11-20T00:39:44;11.93;;;4.97;;
67185;SDS011;54116;53.518;49.398;2022-11-20T00:42:10;11.55;;;4.65;;
67185;SDS011;54116;53.518;49.398;2022-11-20T00:44:36;12.73;;;5.25;;
67185;SDS011;54116;53.518;49.398;2022-11-20T00:47:02;11.68;;;5.07;;
67185;SDS011;54116;53.518;49.398;2022-11-20T00:49:28;11.05;;;4.70;;
67185;SDS011;54116;53.518;49.398;2022-11-20T00:51:54;11.95;;;5.68;;
67185;SDS011;54116;53.518;49.398;2022-11-20T00:54:20;12.80;;;5.18;;
67185;SDS011;54116;53.518;49.398;2022-11-20T00:56:46;10.98;;;4.70;;
67185;SDS011;54116;53.518;49.398;2022-11-20T00:59:12;11.85;;;5.15;;
67185;SDS011;54116;53.518;49.398;2022-11-20T01:01:38;11.27;;;5.18;;
67185;SDS011;54116;53.518;49.398;2022-11-20T01:04:04;13.27;;;5.78;;
67185;SDS011;54116;53.518;49.398;2022-11-20T01:06:32;11.88;;;5.00;;
67185;SDS011;54116;53.518;49.398;2022-11-20T01:09:00;11.05;;;5.20;;
67185;SDS011;54116;53.518;49.398;2022-11-20T01:11:30;13.05;;;5.80;;
67185;SDS011;54116;53.518;49.398;2022-11-20T01:13:58;13.55;;;5.05;;
67185;SDS011;54116;53.518;49.398;2022-11-20T01:16:32;13.27;;;5.95;;
67185;SDS011;54116;53.518;49.398;2022-11-20T01:19:04;15.98;;;5.78;;
67185;SDS011;54116;53.518;49.398;2022-11-20T01:21:35;11.75;;;5.10;;
67185;SDS011;54116;53.518;49.398;2022-11-20T01:24:03;12.85;;;5.25;;
67185;SDS011;54116;53.518;49.398;2022-11-20T01:26:31;13.30;;;5.50;;
67185;SDS011;54116;53.518;49.398;2022-11-20T01:28:59;14.13;;;5.80;;
67185;SDS011;54116;53.518;49.398;2022-11-20T01:31:27;10.77;;;5.13;;
67185;SDS011;54116;53.518;49.398;2022-11-20T01:33:56;12.00;;;5.03;;
67185;SDS011;54116;53.518;49.398;2022-11-20T01:36:24;12.25;;;5.32;;
67185;SDS011;54116;53.518;49.398;2022-11-20T01:38:52;11.75;;;4.97;;
67185;SDS011;54116;53.518;49.398;2022-11-20T01:41:19;11.40;;;5.03;;
67185;SDS011;54116;53.518;49.398;2022-11-20T01:44:05;14.02;;;5.95;;
67185;SDS011;54116;53.518;49.398;2022-11-20T01:46:35;12.43;;;5.22;;
67185;SDS011;54116;53.518;49.398;2022-11-20T01:51:49;11.55;;;5.00;;
67185;SDS011;54116;53.518;49.398;2022-11-20T01:54:22;14.43;;;5.28;;
67185;SDS011;54116;53.518;49.398;2022-11-20T01:56:55;13.38;;;5.63;;
67185;SDS011;54116;53.518;49.398;2022-11-20T01:59:25;12.63;;;5.30;;
67185;SDS011;54116;53.518;49.398;2022-11-20T02:01:53;12.27;;;5.70;;
67185;SDS011;54116;53.518;49.398;2022-11-20T02:04:20;12.63;;;5.47;;
67185;SDS011;54116;53.518;49.398;2022-11-20T02:06:49;13.35;;;5.65;;
67185;SDS011;54116;53.518;49.398;2022-11-20T02:09:26;11.43;;;4.78;;
67185;SDS011;54116;53.518;49.398;2022-11-20T02:11:53;10.90;;;4.65;;
67185;SDS011;54116;53.518;49.398;2022-11-20T02:14:20;12.27;;;5.18;;
67185;SDS011;54116;53.518;49.398;2022-11-20T02:16:48;12.07;;;5.47;;
67185;SDS011;54116;53.518;49.398;2022-11-20T02:21:48;13.27;;;5.30;;
67185;SDS011;54116;53.518;49.398;2022-11-20T02:24:22;11.98;;;5.55;;
67185;SDS011;54116;53.518;49.398;2022-11-20T02:29:38;14.70;;;5.88;;
67185;SDS011;54116;53.518;49.398;2022-11-20T02:32:05;12.35;;;5.20;;
67185;SDS011;54116;53.518;49.398;2022-11-20T02:34:31;12.55;;;5.00;;
67185;SDS011;54116;53.518;49.398;2022-11-20T02:41:52;10.57;;;4.18;;
67185;SDS011;54116;53.518;49.398;2022-11-20T02:44:21;11.32;;;5.07;;
67185;SDS011;54116;53.518;49.398;2022-11-20T02:46:47;11.38;;;4.97;;
67185;SDS011;54116;53.518;49.398;2022-11-20T02:49:13;12.13;;;5.13;;
67185;SDS011;54116;53.518;49.398;2022-11-20T02:51:39;11.45;;;5.28;;
67185;SDS011;54116;53.518;49.398;2022-11-20T02:54:05;11.70;;;4.55;;
67185;SDS011;54116;53.518;49.398;2022-11-20T02:56:31;12.25;;;5.35;;
67185;SDS011;54116;53.518;49.398;2022-11-20T02:58:57;12.57;;;5.05;;
67185;SDS011;54116;53.518;49.398;2022-11-20T03:01:23;11.93;;;4.45;;
67185;SDS011;54116;53.518;49.398;2022-11-20T03:03:49;13.38;;;5.28;;
67185;SDS011;54116;53.518;49.398;2022-11-20T03:06:16;10.70;;;4.88;;
67185;SDS011;54116;53.518;49.398;2022-11-20T03:08:42;12.98;;;5.32;;
67185;SDS011;54116;53.518;49.398;2022-11-20T03:11:09;12.07;;;4.68;;
67185;SDS011;54116;53.518;49.398;2022-11-20T03:16:08;10.90;;;4.95;;
67185;SDS011;54116;53.518;49.398;2022-11-20T03:18:37;12.48;;;4.88;;
67185;SDS011;54116;53.518;49.398;2022-11-20T03:21:03;11.63;;;4.82;;
67185;SDS011;54116;53.518;49.398;2022-11-20T03:26:07;13.77;;;4.88;;
67185;SDS011;54116;53.518;49.398;2022-11-20T03:28:35;12.05;;;5.75;;
67185;SDS011;54116;53.518;49.398;2022-11-20T03:31:05;11.63;;;5.10;;
67185;SDS011;54116;53.518;49.398;2022-11-20T03:33:35;11.82;;;5.40;;
67185;SDS011;54116;53.518;49.398;2022-11-20T03:36:02;12.63;;;5.35;;
67185;SDS011;54116;53.518;49.398;2022-11-20T03:38:30;13.45;;;5.60;;
67185;SDS011;54116;53.518;49.398;2022-11-20T03:41:01;13.68;;;5.95;;
67185;SDS011;54116;53.518;49.398;2022-11-20T03:43:28;12.20;;;5.32;;
67185;SDS011;54116;53.518;49.398;2022-11-20T03:45:55;11.80;;;5.05;;
67185;SDS011;54116;53.518;49.398;2022-11-20T03:48:21;13.32;;;5.60;;
67185;SDS011;54116;53.518;49.398;2022-11-20T03:50:47;13.32;;;4.88;;
67185;SDS011;54116;53.518;49.398;2022-11-20T03:53:13;11.68;;;4.90;;
67185;SDS011;54116;53.518;49.398;2022-11-20T03:55:40;12.90;;;6.05;;
67185;SDS011;54116;53.518;49.398;2022-11-20T03:58:06;11.65;;;5.10;;
67185;SDS011;54116;53.518;49.398;2022-11-20T04:00:32;13.50;;;5.43;;
67185;SDS011;54116;53.518;49.398;2022-11-20T04:02:59;13.85;;;6.00;;
67185;SDS011;54116;53.518;49.398;2022-11-20T04:05:25;12.93;;;4.93;;
67185;SDS011;54116;53.518;49.398;2022-11-20T04:07:51;12.48;;;5.07;;
67185;SDS011;54116;53.518;49.398;2022-11-20T04:10:18;13.68;;;5.53;;
67185;SDS011;54116;53.518;49.398;2022-11-20T04:12:44;12.02;;;5.05;;
67185;SDS011;54116;53.518;49.398;2022-11-20T04:15:10;11.65;;;5.18;;
67185;SDS011;54116;53.518;49.398;2022-11-20T04:17:36;12.38;;;5.60;;
67185;SDS011;54116;53.518;49.398;2022-11-20T04:20:02;11.52;;;5.25;;
67185;SDS011;54116;53.518;49.398;2022-11-20T04:22:29;15.07;;;5.88;;
67185;SDS011;54116;53.518;49.398;2022-11-20T04:24:55;11.90;;;5.20;;
67185;SDS011;54116;53.518;49.398;2022-11-20T04:27:21;12.05;;;5.38;;
67185;SDS011;54116;53.518;49.398;2022-11-20T04:29:46;12.18;;;5.32;;
67185;SDS011;54116;53.518;49.398;2022-11-20T04:32:12;13.45;;;5.72;;
67185;SDS011;54116;53.518;49.398;2022-11-20T04:34:38;12.57;;;5.03;;
67185;SDS011;54116;53.518;49.398;2022-11-20T04:37:04;10.25;;;4.63;;
67185;SDS011;54116;53.518;49.398;2022-11-20T04:39:30;11.43;;;4.85;;
67185;SDS011;54116;53.518;49.398;2022-11-20T04:41:56;11.75;;;4.75;;
67185;SDS011;54116;53.518;49.398;2022-11-20T04:44:41;10.90;;;4.63;;
67185;SDS011;54116;53.518;49.398;2022-11-20T04:47:07;13.32;;;5.50;;
67185;SDS011;54116;53.518;49.398;2022-11-20T04:49:33;12.98;;;5.32;;
67185;SDS011;54116;53.518;49.398;2022-11-20T04:51:59;12.07;;;5.20;;
67185;SDS011;54116;53.518;49.398;2022-11-20T04:54:25;11.10;;;4.93;;
67185;SDS011;54116;53.518;49.398;2022-11-20T04:56:51;14.35;;;5.70;;
67185;SDS011;54116;53.518;49.398;2022-11-20T04:59:17;12.90;;;5.38;;
67185;SDS011;54116;53.518;49.398;2022-11-20T05:01:43;11.05;;;5.15;;
67185;SDS011;54116;53.518;49.398;2022-11-20T05:04:09;11.18;;;4.43;;
67185;SDS011;54116;53.518;49.398;2022-11-20T05:06:35;12.65;;;5.25;;
67185;SDS011;54116;53.518;49.398;2022-11-20T05:09:01;10.52;;;4.82;;
67185;SDS011;54116;53.518;49.398;2022-11-20T05:11:27;11.57;;;5.28;;
67185;SDS011;54116;53.518;49.398;2022-11-20T05:13:57;11.30;;;4.93;;
67185;SDS011;54116;53.518;49.398;2022-11-20T05:16:24;11.73;;;4.43;;
67185;SDS011;54116;53.518;49.398;2022-11-20T05:18:51;11.73;;;5.15;;
67185;SDS011;54116;53.518;49.398;2022-11-20T05:21:18;10.65;;;4.32;;
67185;SDS011;54116;53.518;49.398;2022-11-20T05:26:15;14.18;;;4.97;;
67185;SDS011;54116;53.518;49.398;2022-11-20T05:28:44;10.07;;;4.03;;
67185;SDS011;54116;53.518;49.398;2022-11-20T05:31:11;10.18;;;4.65;;
67185;SDS011;54116;53.518;49.398;2022-11-20T05:33:40;11.43;;;4.20;;
67185;SDS011;54116;53.518;49.398;2022-11-20T05:36:07;12.73;;;5.65;;
67185;SDS011;54116;53.518;49.398;2022-11-20T05:38:34;11.27;;;4.93;;
67185;SDS011;54116;53.518;49.398;2022-11-20T05:41:03;11.10;;;4.85;;
67185;SDS011;54116;53.518;49.398;2022-11-20T05:43:38;10.77;;;4.63;;
67185;SDS011;54116;53.518;49.398;2022-11-20T05:46:06;12.75;;;5.10;;
67185;SDS011;54116;53.518;49.398;2022-11-20T05:48:34;12.45;;;5.30;;
67185;SDS011;54116;53.518;49.398;2022-11-20T05:51:01;11.00;;;5.28;;
67185;SDS011;54116;53.518;49.398;2022-11-20T05:53:28;11.65;;;5.20;;
67185;SDS011;54116;53.518;49.398;2022-11-20T05:56:03;12.35;;;5.68;;
67185;SDS011;54116;53.518;49.398;2022-11-20T05:58:32;14.10;;;6.13;;
67185;SDS011;54116;53.518;49.398;2022-11-20T06:01:06;10.77;;;4.72;;
67185;SDS011;54116;53.518;49.398;2022-11-20T06:04:02;12.55;;;4.63;;
67185;SDS011;54116;53.518;49.398;2022-11-20T06:08:54;11.88;;;5.30;;
67185;SDS011;54116;53.518;49.398;2022-11-20T06:11:21;11.85;;;5.72;;
67185;SDS011;54116;53.518;49.398;2022-11-20T06:13:48;14.57;;;6.20;;
67185;SDS011;54116;53.518;49.398;2022-11-20T06:16:15;12.90;;;5.63;;
67185;SDS011;54116;53.518;49.398;2022-11-20T06:18:42;14.13;;;5.53;;
67185;SDS011;54116;53.518;49.398;2022-11-20T06:21:09;12.48;;;5.40;;
67185;SDS011;54116;53.518;49.398;2022-11-20T06:23:43;14.07;;;5.93;;
67185;SDS011;54116;53.518;49.398;2022-11-20T06:26:10;12.48;;;5.43;;
67185;SDS011;54116;53.518;49.398;2022-11-20T06:28:38;15.23;;;6.47;;
67185;SDS011;54116;53.518;49.398;2022-11-20T06:31:05;14.60;;;6.22;;
67185;SDS011;54116;53.518;49.398;2022-11-20T06:33:32;13.90;;;6.43;;
67185;SDS011;54116;53.518;49.398;2022-11-20T06:35:59;13.23;;;5.25;;
67185;SDS011;54116;53.518;49.398;2022-11-20T06:38:26;12.45;;;5.28;;
67185;SDS011;54116;53.518;49.398;2022-11-20T06:40:53;13.60;;;5.90;;
67185;SDS011;54116;53.518;49.398;2022-11-20T06:43:19;14.43;;;6.05;;
67185;SDS011;54116;53.518;49.398;2022-11-20T06:45:51;12.48;;;5.68;;
67185;SDS011;54116;53.518;49.398;2022-11-20T06:48:18;11.55;;;5.63;;
67185;SDS011;54116;53.518;49.398;2022-11-20T06:50:44;11.35;;;5.10;;
67185;SDS011;54116;53.518;49.398;2022-11-20T06:53:10;12.75;;;4.82;;
67185;SDS011;54116;53.518;49.398;2022-11-20T06:55:36;15.55;;;5.57;;
67185;SDS011;54116;53.518;49.398;2022-11-20T06:58:02;15.30;;;6.03;;
67185;SDS011;54116;53.518;49.398;2022-11-20T07:00:28;12.13;;;5.22;;
67185;SDS011;54116;53.518;49.398;2022-11-20T07:02:54;13.55;;;5.78;;
67185;SDS011;54116;53.518;49.398;2022-11-20T07:05:20;11.40;;;4.90;;
67185;SDS011;54116;53.518;49.398;2022-11-20T07:07:46;14.48;;;5.70;;
67185;SDS011;54116;53.518;49.398;2022-11-20T07:10:12;13.85;;;5.38;;
67185;SDS011;54116;53.518;49.398;2022-11-20T07:12:38;12.88;;;5.63;;
67185;SDS011;54116;53.518;49.398;2022-11-20T07:15:04;13.18;;;5.13;;
67185;SDS011;54116;53.518;49.398;2022-11-20T07:17:31;15.60;;;6.38;;
67185;SDS011;54116;53.518;49.398;2022-11-20T07:19:57;16.45;;;6.43;;
67185;SDS011;54116;53.518;49.398;2022-11-20T07:22:23;15.43;;;6.10;;
67185;SDS011;54116;53.518;49.398;2022-11-20T07:24:49;14.90;;;5.85;;
67185;SDS011;54116;53.518;49.398;2022-11-20T07:27:15;13.00;;;5.40;;
67185;SDS011;54116;53.518;49.398;2022-11-20T07:29:41;14.27;;;6.07;;
67185;SDS011;54116;53.518;49.398;2022-11-20T07:32:07;14.00;;;5.80;;
67185;SDS011;54116;53.518;49.398;2022-11-20T07:34:33;16.27;;;6.72;;
67185;SDS011;54116;53.518;49.398;2022-11-20T07:36:59;14.23;;;5.93;;
67185;SDS011;54116;53.518;49.398;2022-11-20T07:39:25;14.45;;;6.18;;
67185;SDS011;54116;53.518;49.398;2022-11-20T07:41:51;14.80;;;6.15;;
67185;SDS011;54116;53.518;49.398;2022-11-20T07:44:17;12.90;;;5.75;;
67185;SDS011;54116;53.518;49.398;2022-11-20T07:46:43;13.75;;;5.70;;
67185;SDS011;54116;53.518;49.398;2022-11-20T07:49:09;14.68;;;6.18;;
67185;SDS011;54116;53.518;49.398;2022-11-20T07:51:35;16.73;;;6.00;;
67185;SDS011;54116;53.518;49.398;2022-11-20T07:54:01;16.10;;;6.55;;
67185;SDS011;54116;53.518;49.398;2022-11-20T07:56:27;14.18;;;6.60;;
67185;SDS011;54116;53.518;49.398;2022-11-20T07:58:53;18.10;;;6.70;;
67185;SDS011;54116;53.518;49.398;2022-11-20T08:01:19;16.60;;;7.20;;
67185;SDS011;54116;53.518;49.398;2022-11-20T08:03:45;18.58;;;6.90;;
67185;SDS011;54116;53.518;49.398;2022-11-20T08:06:11;19.63;;;7.07;;
67185;SDS011;54116;53.518;49.398;2022-11-20T08:08:37;17.98;;;6.45;;
67185;SDS011;54116;53.518;49.398;2022-11-20T08:11:05;16.65;;;6.55;;
67185;SDS011;54116;53.518;49.398;2022-11-20T08:13:49;18.98;;;7.28;;
67185;SDS011;54116;53.518;49.398;2022-11-20T08:16:33;17.55;;;7.10;;
67185;SDS011;54116;53.518;49.398;2022-11-20T08:19:00;18.08;;;7.05;;
67185;SDS011;54116;53.518;49.398;2022-11-20T08:21:26;16.85;;;6.90;;
67185;SDS011;54116;53.518;49.398;2022-11-20T08:23:52;17.40;;;7.07;;
67185;SDS011;54116;53.518;49.398;2022-11-20T08:26:18;18.70;;;7.07;;
67185;SDS011;54116;53.518;49.398;2022-11-20T08:28:44;18.73;;;7.55;;
67185;SDS011;54116;53.518;49.398;2022-11-20T08:33:36;15.90;;;6.65;;
67185;SDS011;54116;53.518;49.398;2022-11-20T08:36:02;18.92;;;7.47;;
67185;SDS011;54116;53.518;49.398;2022-11-20T08:38:30;17.55;;;7.38;;
67185;SDS011;54116;53.518;49.398;2022-11-20T08:40:57;16.85;;;7.00;;
67185;SDS011;54116;53.518;49.398;2022-11-20T08:43:42;20.65;;;7.43;;
67185;SDS011;54116;53.518;49.398;2022-11-20T08:46:08;17.52;;;7.40;;
67185;SDS011;54116;53.518;49.398;2022-11-20T08:48:34;19.65;;;7.43;;
67185;SDS011;54116;53.518;49.398;2022-11-20T08:51:00;16.02;;;6.72;;
67185;SDS011;54116;53.518;49.398;2022-11-20T08:53:26;15.30;;;6.28;;
67185;SDS011;54116;53.518;49.398;2022-11-20T08:55:53;14.18;;;6.00;;
67185;SDS011;54116;53.518;49.398;2022-11-20T08:58:19;19.02;;;7.55;;
67185;SDS011;54116;53.518;49.398;2022-11-20T09:00:45;15.68;;;6.25;;
67185;SDS011;54116;53.518;49.398;2022-11-20T09:05:38;15.63;;;6.05;;
67185;SDS011;54116;53.518;49.398;2022-11-20T09:08:04;17.40;;;6.88;;
67185;SDS011;54116;53.518;49.398;2022-11-20T09:10:30;16.40;;;6.57;;
67185;SDS011;54116;53.518;49.398;2022-11-20T09:12:57;15.13;;;6.25;;
67185;SDS011;54116;53.518;49.398;2022-11-20T09:15:24;14.27;;;6.63;;
67185;SDS011;54116;53.518;49.398;2022-11-20T09:17:51;13.23;;;5.80;;
67185;SDS011;54116;53.518;49.398;2022-11-20T09:20:21;14.18;;;5.72;;
67185;SDS011;54116;53.518;49.398;2022-11-20T09:22:50;13.48;;;5.88;;
67185;SDS011;54116;53.518;49.398;2022-11-20T09:25:16;13.45;;;5.50;;
67185;SDS011;54116;53.518;49.398;2022-11-20T09:27:43;18.17;;;6.47;;
67185;SDS011;54116;53.518;49.398;2022-11-20T09:30:11;16.23;;;6.82;;
67185;SDS011;54116;53.518;49.398;2022-11-20T09:32:38;13.63;;;5.97;;
67185;SDS011;54116;53.518;49.398;2022-11-20T09:35:05;12.30;;;5.32;;
67185;SDS011;54116;53.518;49.398;2022-11-20T09:37:31;14.35;;;6.68;;
67185;SDS011;54116;53.518;49.398;2022-11-20T09:39:58;16.73;;;6.80;;
67185;SDS011;54116;53.518;49.398;2022-11-20T09:50:49;14.40;;;6.13;;
67185;SDS011;54116;53.518;49.398;2022-11-20T09:53:37;14.63;;;5.75;;
67185;SDS011;54116;53.518;49.398;2022-11-20T09:56:07;14.93;;;6.15;;
67185;SDS011;54116;53.518;49.398;2022-11-20T09:58:42;17.25;;;6.38;;
67185;SDS011;54116;53.518;49.398;2022-11-20T10:01:26;19.05;;;6.90;;
67185;SDS011;54116;53.518;49.398;2022-11-20T10:04:00;16.65;;;7.22;;
67185;SDS011;54116;53.518;49.398;2022-11-20T10:06:39;16.70;;;6.05;;
67185;SDS011;54116;53.518;49.398;2022-11-20T10:17:28;14.98;;;6.07;;
67185;SDS011;54116;53.518;49.398;2022-11-20T10:24:56;18.20;;;7.15;;
67185;SDS011;54116;53.518;49.398;2022-11-20T10:30:17;29.33;;;11.20;;
67185;SDS011;54116;53.518;49.398;2022-11-20T10:32:48;13.35;;;5.82;;
67185;SDS011;54116;53.518;49.398;2022-11-20T10:35:34;20.10;;;8.15;;
67185;SDS011;54116;53.518;49.398;2022-11-20T10:38:09;23.05;;;8.90;;
67185;SDS011;54116;53.518;49.398;2022-11-20T10:40:46;17.90;;;7.00;;
67185;SDS011;54116;53.518;49.398;2022-11-20T10:43:18;17.60;;;7.47;;
67185;SDS011;54116;53.518;49.398;2022-11-20T10:45:58;13.50;;;6.28;;
67185;SDS011;54116;53.518;49.398;2022-11-20T10:51:03;11.70;;;4.93;;
67185;SDS011;54116;53.518;49.398;2022-11-20T11:01:50;11.77;;;4.28;;
67185;SDS011;54116;53.518;49.398;2022-11-20T11:04:58;9.98;;;4.40;;
67185;SDS011;54116;53.518;49.398;2022-11-20T11:09:40;12.82;;;5.97;;
67185;SDS011;54116;53.518;49.398;2022-11-20T11:12:17;16.48;;;8.43;;
67185;SDS011;54116;53.518;49.398;2022-11-20T11:14:45;17.90;;;7.38;;
67185;SDS011;54116;53.518;49.398;2022-11-20T11:22:24;12.73;;;6.13;;
67185;SDS011;54116;53.518;49.398;2022-11-20T11:24:53;12.25;;;5.15;;
67185;SDS011;54116;53.518;49.398;2022-11-20T11:27:19;17.25;;;7.43;;
67185;SDS011;54116;53.518;49.398;2022-11-20T11:29:46;16.40;;;8.15;;
67185;SDS011;54116;53.518;49.398;2022-11-20T11:32:17;18.05;;;8.40;;
67185;SDS011;54116;53.518;49.398;2022-11-20T11:34:58;15.32;;;7.00;;
67185;SDS011;54116;53.518;49.398;2022-11-20T11:37:35;13.38;;;6.18;;
67185;SDS011;54116;53.518;49.398;2022-11-20T11:40:03;16.38;;;5.47;;
67185;SDS011;54116;53.518;49.398;2022-11-20T11:42:32;10.70;;;4.35;;
67185;SDS011;54116;53.518;49.398;2022-11-20T11:44:59;9.57;;;4.30;;
67185;SDS011;54116;53.518;49.398;2022-11-20T11:50:24;10.02;;;3.95;;
67185;SDS011;54116;53.518;49.398;2022-11-20T11:52:56;9.45;;;4.60;;
67185;SDS011;54116;53.518;49.398;2022-11-20T12:00:33;9.43;;;3.85;;
67185;SDS011;54116;53.518;49.398;2022-11-20T12:03:09;7.85;;;3.17;;
67185;SDS011;54116;53.518;49.398;2022-11-20T12:05:44;9.60;;;4.43;;
67185;SDS011;54116;53.518;49.398;2022-11-20T12:10:50;10.10;;;4.05;;
67185;SDS011;54116;53.518;49.398;2022-11-20T12:16:04;13.80;;;7.78;;
67185;SDS011;54116;53.518;49.398;2022-11-20T12:23:58;11.20;;;4.13;;
67185;SDS011;54116;53.518;49.398;2022-11-20T12:29:49;12.10;;;5.10;;
67185;SDS011;54116;53.518;49.398;2022-11-20T12:43:35;13.90;;;5.55;;
67185;SDS011;54116;53.518;49.398;2022-11-20T13:00:02;17.35;;;7.50;;
67185;SDS011;54116;53.518;49.398;2022-11-20T13:05:21;12.85;;;5.00;;
67185;SDS011;54116;53.518;49.398;2022-11-20T13:07:55;12.10;;;5.35;;
67185;SDS011;54116;53.518;49.398;2022-11-20T13:16:21;12.38;;;5.03;;
67185;SDS011;54116;53.518;49.398;2022-11-20T13:19:03;12.70;;;5.05;;
67185;SDS011;54116;53.518;49.398;2022-11-20T13:24:07;14.43;;;6.32;;
67185;SDS011;54116;53.518;49.398;2022-11-20T13:29:32;22.52;;;9.07;;
67185;SDS011;54116;53.518;49.398;2022-11-20T13:34:37;21.08;;;8.02;;
67185;SDS011;54116;53.518;49.398;2022-11-20T13:39:31;16.25;;;7.28;;
67185;SDS011;54116;53.518;49.398;2022-11-20T13:42:03;17.13;;;7.57;;
67185;SDS011;54116;53.518;49.398;2022-11-20T13:44:55;22.00;;;10.52;;
67185;SDS011;54116;53.518;49.398;2022-11-20T13:47:27;24.13;;;10.68;;
67185;SDS011;54116;53.518;49.398;2022-11-20T13:49:55;25.67;;;10.68;;
67185;SDS011;54116;53.518;49.398;2022-11-20T14:01:00;20.20;;;8.38;;
67185;SDS011;54116;53.518;49.398;2022-11-20T14:03:33;16.02;;;6.82;;
67185;SDS011;54116;53.518;49.398;2022-11-20T14:06:04;19.23;;;8.32;;
67185;SDS011;54116;53.518;49.398;2022-11-20T14:08:37;21.48;;;8.70;;
67185;SDS011;54116;53.518;49.398;2022-11-20T14:11:15;19.77;;;8.90;;
67185;SDS011;54116;53.518;49.398;2022-11-20T14:13:51;22.38;;;8.60;;
67185;SDS011;54116;53.518;49.398;2022-11-20T14:16:21;21.98;;;8.48;;
67185;SDS011;54116;53.518;49.398;2022-11-20T14:18:50;18.80;;;8.05;;
67185;SDS011;54116;53.518;49.398;2022-11-20T14:24:02;20.85;;;8.07;;
67185;SDS011;54116;53.518;49.398;2022-11-20T14:26:30;20.75;;;8.88;;
67185;SDS011;54116;53.518;49.398;2022-11-20T14:28:57;26.85;;;9.95;;
67185;SDS011;54116;53.518;49.398;2022-11-20T14:33:51;12.75;;;5.40;;
67185;SDS011;54116;53.518;49.398;2022-11-20T14:36:19;10.93;;;4.78;;
67185;SDS011;54116;53.518;49.398;2022-11-20T14:38:47;12.30;;;5.15;;
67185;SDS011;54116;53.518;49.398;2022-11-20T14:41:23;16.73;;;6.80;;
67185;SDS011;54116;53.518;49.398;2022-11-20T14:43:54;13.52;;;7.38;;
67185;SDS011;54116;53.518;49.398;2022-11-20T14:46:22;13.35;;;7.50;;
67185;SDS011;54116;53.518;49.398;2022-11-20T14:48:54;11.05;;;5.70;;
67185;SDS011;54116;53.518;49.398;2022-11-20T14:51:38;14.85;;;8.23;;
67185;SDS011;54116;53.518;49.398;2022-11-20T14:54:11;12.32;;;5.63;;
67185;SDS011;54116;53.518;49.398;2022-11-20T14:56:39;15.25;;;7.10;;
67185;SDS011;54116;53.518;49.398;2022-11-20T15:01:32;17.52;;;7.63;;
67185;SDS011;54116;53.518;49.398;2022-11-20T15:04:00;20.40;;;9.43;;
67185;SDS011;54116;53.518;49.398;2022-11-20T15:06:27;24.48;;;10.27;;
67185;SDS011;54116;53.518;49.398;2022-11-20T15:08:54;21.25;;;9.07;;
67185;SDS011;54116;53.518;49.398;2022-11-20T15:11:23;30.38;;;12.23;;
67185;SDS011;54116;53.518;49.398;2022-11-20T15:13:54;22.48;;;8.35;;
67185;SDS011;54116;53.518;49.398;2022-11-20T15:18:48;19.58;;;9.02;;
67185;SDS011;54116;53.518;49.398;2022-11-20T15:21:15;20.23;;;8.15;;
67185;SDS011;54116;53.518;49.398;2022-11-20T15:23:43;25.27;;;9.18;;
67185;SDS011;54116;53.518;49.398;2022-11-20T15:26:10;22.92;;;8.63;;
67185;SDS011;54116;53.518;49.398;2022-11-20T15:28:47;21.40;;;9.13;;
67185;SDS011;54116;53.518;49.398;2022-11-20T15:31:16;24.10;;;10.32;;
67185;SDS011;54116;53.518;49.398;2022-11-20T15:33:44;21.75;;;8.88;;
67185;SDS011;54116;53.518;49.398;2022-11-20T15:38:36;22.40;;;8.45;;
67185;SDS011;54116;53.518;49.398;2022-11-20T15:41:02;26.20;;;9.15;;
67185;SDS011;54116;53.518;49.398;2022-11-20T15:43:28;26.60;;;9.88;;
67185;SDS011;54116;53.518;49.398;2022-11-20T15:48:45;27.25;;;9.05;;
67185;SDS011;54116;53.518;49.398;2022-11-20T15:51:35;26.83;;;10.10;;
67185;SDS011;54116;53.518;49.398;2022-11-20T15:54:13;30.88;;;10.38;;
67185;SDS011;54116;53.518;49.398;2022-11-20T15:56:42;28.73;;;11.30;;
67185;SDS011;54116;53.518;49.398;2022-11-20T15:59:09;29.80;;;12.13;;
67185;SDS011;54116;53.518;49.398;2022-11-20T16:01:35;30.80;;;11.80;;
67185;SDS011;54116;53.518;49.398;2022-11-20T16:04:01;33.30;;;11.35;;
67185;SDS011;54116;53.518;49.398;2022-11-20T16:06:27;27.95;;;10.55;;
67185;SDS011;54116;53.518;49.398;2022-11-20T16:08:53;32.58;;;11.93;;
67185;SDS011;54116;53.518;49.398;2022-11-20T16:11:19;32.03;;;12.15;;
67185;SDS011;54116;53.518;49.398;2022-11-20T16:13:45;29.33;;;9.88;;
67185;SDS011;54116;53.518;49.398;2022-11-20T16:16:40;27.50;;;10.20;;
67185;SDS011;54116;53.518;49.398;2022-11-20T16:19:12;30.67;;;10.38;;
67185;SDS011;54116;53.518;49.398;2022-11-20T16:21:39;33.20;;;10.75;;
67185;SDS011;54116;53.518;49.398;2022-11-20T16:24:07;31.85;;;10.63;;
67185;SDS011;54116;53.518;49.398;2022-11-20T16:26:36;28.38;;;10.13;;
67185;SDS011;54116;53.518;49.398;2022-11-20T16:29:03;25.35;;;8.63;;
67185;SDS011;54116;53.518;49.398;2022-11-20T16:31:30;27.58;;;9.38;;
67185;SDS011;54116;53.518;49.398;2022-11-20T16:33:58;30.30;;;9.10;;
67185;SDS011;54116;53.518;49.398;2022-11-20T16:36:26;25.95;;;9.75;;
67185;SDS011;54116;53.518;49.398;2022-11-20T16:38:54;23.63;;;8.93;;
67185;SDS011;54116;53.518;49.398;2022-11-20T16:41:22;25.55;;;9.30;;
67185;SDS011;54116;53.518;49.398;2022-11-20T16:43:52;30.58;;;9.73;;
67185;SDS011;54116;53.518;49.398;2022-11-20T16:46:20;25.45;;;9.13;;
67185;SDS011;54116;53.518;49.398;2022-11-20T16:48:57;24.08;;;7.80;;
67185;SDS011;54116;53.518;49.398;2022-11-20T16:51:24;26.63;;;9.07;;
67185;SDS011;54116;53.518;49.398;2022-11-20T16:53:51;25.27;;;9.13;;
67185;SDS011;54116;53.518;49.398;2022-11-20T16:56:19;26.63;;;8.52;;
67185;SDS011;54116;53.518;49.398;2022-11-20T16:58:48;25.08;;;8.05;;
67185;SDS011;54116;53.518;49.398;2022-11-20T17:01:16;21.73;;;7.47;;
67185;SDS011;54116;53.518;49.398;2022-11-20T17:03:46;22.60;;;8.20;;
67185;SDS011;54116;53.518;49.398;2022-11-20T17:06:19;23.25;;;8.30;;
67185;SDS011;54116;53.518;49.398;2022-11-20T17:08:47;23.38;;;8.98;;
67185;SDS011;54116;53.518;49.398;2022-11-20T17:11:14;24.17;;;9.55;;